Time;durP1;ratioP1;P1;durP2;ratioP2;P2;SDS_P1;SDS_P2;PMS_P1;PMS_P2;Temp;Humidity;BMP_temperature;BMP_pressure;BME280_temperature;BME280_humidity;BME280_pressure;Samples;Min_cycle;Max_cycle;Signal;HPM_P1;HPM_P2
2021/07/16 00:01:59;;;;;;;52.78;48.97;;;;;;;18.70;100.00;100613.03;4957334;28;20062;-89
2021/07/16 00:04:26;;;;;;;51.67;47.90;;;;;;;18.72;100.00;100616.25;4957488;28;20058;-90
2021/07/16 00:06:53;;;;;;;53.58;49.47;;;;;;;18.82;100.00;100619.03;4955007;28;20055;-92
2021/07/16 00:09:20;;;;;;;48.47;44.70;;;;;;;18.97;100.00;100618.25;4957580;28;20046;-89
2021/07/16 00:11:48;;;;;;;44.45;41.08;;;;;;;19.37;100.00;100611.41;4938293;28;20055;-90
2021/07/16 00:14:15;;;;;;;49.72;46.15;;;;;;;19.13;100.00;100608.38;4938458;29;20058;-89
2021/07/16 00:16:42;;;;;;;47.13;43.90;;;;;;;19.15;100.00;100601.66;4939121;29;20047;-90
2021/07/16 00:19:09;;;;;;;54.67;50.70;;;;;;;18.62;100.00;100595.50;4955780;28;20473;-91
2021/07/16 00:21:36;;;;;;;53.00;49.38;;;;;;;18.86;100.00;100600.50;4956851;28;20071;-91
2021/07/16 00:24:03;;;;;;;56.33;52.63;;;;;;;18.68;100.00;100594.47;4957408;28;20054;-91
2021/07/16 00:26:30;;;;;;;51.55;47.38;;;;;;;18.62;100.00;100602.78;4957173;28;20047;-92
2021/07/16 00:28:59;;;;;;;52.25;48.53;;;;;;;18.67;100.00;100602.78;4938805;28;20425;-92
2021/07/16 00:31:26;;;;;;;54.00;50.10;;;;;;;18.75;100.00;100599.63;4938065;29;20055;-91
2021/07/16 00:33:53;;;;;;;46.95;43.33;;;;;;;18.40;100.00;100595.69;4937972;29;20052;-91
2021/07/16 00:36:20;;;;;;;54.70;50.67;;;;;;;18.47;100.00;100604.31;4941052;29;20054;-92
2021/07/16 00:38:47;;;;;;;52.65;49.05;;;;;;;18.68;100.00;100599.03;4956983;28;20055;-91
2021/07/16 00:41:14;;;;;;;46.42;43.03;;;;;;;18.64;100.00;100592.53;4957125;28;20058;-91
2021/07/16 00:43:41;;;;;;;44.83;41.72;;;;;;;18.75;100.00;100589.66;4956822;28;20051;-91
2021/07/16 00:46:09;;;;;;;53.15;49.25;;;;;;;18.33;100.00;100594.28;4941869;28;20051;-92
2021/07/16 00:48:36;;;;;;;50.22;46.63;;;;;;;18.39;100.00;100594.03;4937805;29;20051;-91
2021/07/16 00:51:03;;;;;;;47.58;43.97;;;;;;;18.75;100.00;100589.66;4940759;29;20058;-91
2021/07/16 00:53:31;;;;;;;47.88;44.28;;;;;;;18.44;100.00;100587.91;4956642;28;20047;-91
2021/07/16 00:55:58;;;;;;;50.83;46.55;;;;;;;18.41;100.00;100591.09;4956778;28;20050;-91
2021/07/16 00:58:25;;;;;;;49.80;45.67;;;;;;;18.58;100.00;100596.28;4956549;28;20055;-91
2021/07/16 01:00:52;;;;;;;51.70;47.85;;;;;;;18.62;100.00;100595.50;4942857;28;20051;-91
2021/07/16 01:03:20;;;;;;;50.28;46.67;;;;;;;18.57;100.00;100595.47;4936397;29;20060;-91
2021/07/16 01:05:47;;;;;;;51.15;47.13;;;;;;;18.35;100.00;100592.16;4940127;29;20046;-91
2021/07/16 01:08:14;;;;;;;51.40;47.10;;;;;;;18.40;100.00;100584.94;4956530;28;20055;-92
2021/07/16 01:10:41;;;;;;;50.95;46.72;;;;;;;18.39;100.00;100590.53;4956422;28;20425;-91
2021/07/16 01:13:13;;;;;;;51.50;47.63;;;;;;;18.28;100.00;100589.69;4956520;28;20421;-90
2021/07/16 01:15:42;;;;;;;49.80;45.80;;;;;;;18.21;100.00;100589.09;4942318;28;20059;-92
2021/07/16 01:18:09;;;;;;;50.50;46.42;;;;;;;18.26;100.00;100589.94;4937333;29;20059;-91
2021/07/16 01:20:38;;;;;;;48.67;44.88;;;;;;;18.21;100.00;100592.59;4937046;29;20056;-90
2021/07/16 01:23:15;;;;;;;49.97;46.28;;;;;;;18.28;100.00;100605.81;4936866;29;20052;-91
2021/07/16 01:25:42;;;;;;;48.38;44.55;;;;;;;18.33;100.00;100602.34;4950822;29;20055;-92
2021/07/16 01:28:09;;;;;;;48.50;44.78;;;;;;;18.35;100.00;100600.22;4956051;28;20043;-91
2021/07/16 01:30:36;;;;;;;50.15;46.15;;;;;;;18.23;100.00;100606.59;4941599;28;20059;-90
2021/07/16 01:33:05;;;;;;;51.55;47.55;;;;;;;17.98;100.00;100604.56;4936840;29;20505;-91
2021/07/16 01:35:32;;;;;;;57.42;53.10;;;;;;;17.88;100.00;100609.03;4948097;29;20130;-91
2021/07/16 01:37:59;;;;;;;57.13;52.53;;;;;;;17.67;100.00;100616.91;4956109;28;20048;-90
2021/07/16 01:40:30;;;;;;;59.17;54.72;;;;;;;17.88;100.00;100600.97;4955419;28;20048;-91
2021/07/16 01:42:59;;;;;;;56.75;52.30;;;;;;;17.81;100.00;100612.72;4956357;28;20051;-90
2021/07/16 01:45:30;;;;;;;56.42;52.13;;;;;;;17.57;100.00;100608.72;4955674;28;20070;-92
2021/07/16 01:47:59;;;;;;;53.25;48.70;;;;;;;17.80;100.00;100597.69;4954095;28;20461;-90
2021/07/16 01:50:27;;;;;;;57.10;52.70;;;;;;;17.89;100.00;100599.91;4946980;28;20040;-91
2021/07/16 01:52:54;;;;;;;60.75;55.63;;;;;;;17.85;100.00;100594.22;4949485;29;20062;-91
2021/07/16 01:55:23;;;;;;;54.13;49.72;;;;;;;17.80;100.00;100603.06;4952081;28;20039;-91
2021/07/16 01:57:52;;;;;;;55.08;50.53;;;;;;;17.75;100.00;100599.50;4955667;28;20051;-90
2021/07/16 02:02:55;;;;;;;54.60;50.15;;;;;;;17.55;100.00;100592.06;5015510;23;20059;-91
2021/07/16 02:05:23;;;;;;;52.63;48.75;;;;;;;17.57;100.00;100592.63;4974620;28;20094;-90
2021/07/16 02:07:51;;;;;;;55.65;51.45;;;;;;;17.68;100.00;100591.66;4974890;28;20130;-90
2021/07/16 02:10:18;;;;;;;51.33;47.13;;;;;;;17.57;100.00;100596.13;4974288;28;20109;-91
2021/07/16 02:12:45;;;;;;;48.90;44.80;;;;;;;17.73;100.00;100588.19;4974988;28;20051;-90
2021/07/16 02:15:17;;;;;;;54.78;50.17;;;;;;;17.47;100.00;100590.66;4964990;28;20062;-90
2021/07/16 02:17:44;;;;;;;59.70;54.90;;;;;;;17.47;100.00;100592.53;4954964;29;20066;-90
2021/07/16 02:20:22;;;;;;;66.05;60.60;;;;;;;16.93;100.00;100596.00;4954974;29;20051;-90
2021/07/16 02:22:49;;;;;;;67.30;61.63;;;;;;;17.15;100.00;100594.09;4955297;29;20047;-91
2021/07/16 02:25:17;;;;;;;62.67;57.15;;;;;;;16.72;100.00;100601.09;4954969;28;20524;-90
2021/07/16 02:27:45;;;;;;;67.28;62.05;;;;;;;16.80;100.00;100604.44;4955051;29;20460;-90
2021/07/16 02:30:14;;;;;;;60.13;55.42;;;;;;;17.19;100.00;100605.16;4965338;28;20054;-90
2021/07/16 02:32:42;;;;;;;66.72;61.25;;;;;;;16.97;100.00;100596.31;4967285;28;20066;-91
2021/07/16 02:35:10;;;;;;;55.83;51.55;;;;;;;17.22;100.00;100604.66;4955014;29;20054;-90
2021/07/16 02:37:37;;;;;;;53.90;49.67;;;;;;;17.35;100.00;100606.13;4954858;29;20050;-89
2021/07/16 02:40:07;;;;;;;53.58;49.70;;;;;;;17.46;100.00;100607.84;4963053;28;20047;-90
2021/07/16 02:42:34;;;;;;;49.00;45.30;;;;;;;17.52;100.00;100608.69;4974265;28;20122;-90
2021/07/16 02:45:02;;;;;;;51.53;47.35;;;;;;;17.34;100.00;100607.19;4973723;28;20050;-90
2021/07/16 02:47:31;;;;;;;54.92;50.58;;;;;;;17.44;100.00;100623.38;4974203;28;20047;-90
2021/07/16 02:49:57;;;;;;;62.83;58.08;;;;;;;17.25;100.00;100624.81;4973463;28;20051;-90
2021/07/16 02:52:24;;;;;;;61.72;56.78;;;;;;;16.75;100.00;100626.59;4974139;28;20439;-91
2021/07/16 02:54:51;;;;;;;58.05;53.60;;;;;;;17.06;100.00;100627.81;4973870;28;20050;-91
2021/07/16 02:57:18;;;;;;;60.75;56.05;;;;;;;16.91;100.00;100638.34;4973691;28;20516;-91
2021/07/16 02:59:45;;;;;;;51.17;47.20;;;;;;;17.31;100.00;100634.53;4973318;28;20043;-91
2021/07/16 03:02:11;;;;;;;51.55;47.58;;;;;;;17.20;100.00;100638.97;4973542;28;20054;-89
2021/07/16 03:04:40;;;;;;;72.97;67.43;;;;;;;17.13;100.00;100649.09;4973652;28;20058;-90
2021/07/16 03:07:07;;;;;;;66.18;61.47;;;;;;;17.37;100.00;100647.75;4973637;28;20082;-90
2021/07/16 03:09:35;;;;;;;63.92;59.40;;;;;;;17.31;100.00;100654.13;4973173;28;20051;-89
2021/07/16 03:12:03;;;;;;;60.28;55.35;;;;;;;17.48;100.00;100658.59;4972256;28;20101;-91
2021/07/16 03:14:30;;;;;;;62.13;56.75;;;;;;;17.34;100.00;100650.13;4973556;28;20054;-90
2021/07/16 03:16:57;;;;;;;67.88;63.05;;;;;;;17.43;100.00;100645.94;4973524;28;20042;-89
2021/07/16 03:19:24;;;;;;;69.65;64.85;;;;;;;17.44;100.00;100644.06;4973539;28;20043;-90
2021/07/16 03:21:52;;;;;;;63.15;58.65;;;;;;;17.60;100.00;100635.88;4973534;28;20062;-90
2021/07/16 03:24:19;;;;;;;59.53;54.63;;;;;;;17.58;100.00;100637.22;4960744;28;20050;-91
2021/07/16 03:26:47;;;;;;;60.22;55.28;;;;;;;17.13;100.00;100644.53;4955196;28;20051;-91
2021/07/16 03:29:14;;;;;;;74.35;68.70;;;;;;;17.42;100.00;100648.88;4958247;29;20051;-90
2021/07/16 03:31:41;;;;;;;71.57;66.28;;;;;;;17.04;100.00;100656.78;4958293;29;20491;-90
2021/07/16 03:34:08;;;;;;;86.10;79.95;;;;;;;17.17;100.00;100653.69;4957944;29;20106;-90
2021/07/16 03:36:35;;;;;;;71.03;65.80;;;;;;;17.44;100.00;100649.44;4958035;29;20527;-89
2021/07/16 03:39:05;;;;;;;65.72;60.03;;;;;;;17.30;100.00;100643.63;4958234;28;20074;-90
2021/07/16 03:41:32;;;;;;;59.33;54.92;;;;;;;17.45;100.00;100649.16;4957848;28;20493;-90
2021/07/16 03:43:59;;;;;;;60.30;55.60;;;;;;;17.53;100.00;100648.72;4958061;29;20058;-91
2021/07/16 03:46:27;;;;;;;64.82;60.13;;;;;;;17.69;100.00;100641.59;4957999;29;20050;-90
2021/07/16 03:48:56;;;;;;;65.78;60.95;;;;;;;17.77;100.00;100641.19;4958472;28;20057;-90
2021/07/16 03:51:23;;;;;;;62.00;57.63;;;;;;;17.92;100.00;100645.06;4957666;29;20075;-90
2021/07/16 03:53:50;;;;;;;61.33;56.50;;;;;;;17.97;100.00;100645.94;4957797;29;20522;-90
2021/07/16 03:56:18;;;;;;;59.83;55.25;;;;;;;18.21;100.00;100651.72;4957774;29;20052;-90
2021/07/16 03:58:46;;;;;;;58.90;54.65;;;;;;;18.29;100.00;100653.94;4957856;29;20476;-90
2021/07/16 04:01:13;;;;;;;50.08;46.40;;;;;;;18.57;100.00;100648.47;4957789;29;20064;-90
2021/07/16 04:03:40;;;;;;;50.83;46.90;;;;;;;18.73;100.00;100651.00;4957299;29;20059;-90
2021/07/16 04:06:07;;;;;;;49.10;45.28;;;;;;;18.97;100.00;100647.88;4957487;29;20051;-89
2021/07/16 04:08:37;;;;;;;44.00;41.20;;;;;;;18.75;100.00;100643.47;4957566;29;20054;-90
2021/07/16 04:11:05;;;;;;;43.13;40.22;;;;;;;19.21;100.00;100642.84;4957429;29;20083;-90
2021/07/16 04:13:33;;;;;;;39.83;36.92;;;;;;;19.33;100.00;100645.28;4957404;28;20055;-89
2021/07/16 04:16:00;;;;;;;40.33;37.42;;;;;;;19.42;100.00;100649.09;4962703;28;20047;-90
2021/07/16 04:18:27;;;;;;;41.97;38.88;;;;;;;19.43;100.00;100651.53;4957492;29;20047;-91
2021/07/16 04:20:54;;;;;;;40.03;37.15;;;;;;;19.71;100.00;100662.09;4957366;29;20078;-90
2021/07/16 04:23:21;;;;;;;40.20;37.50;;;;;;;20.10;100.00;100651.59;4957160;29;20047;-90
2021/07/16 04:25:49;;;;;;;38.97;36.13;;;;;;;20.12;100.00;100652.13;4957373;29;20043;-90
2021/07/16 04:28:16;;;;;;;36.80;34.30;;;;;;;20.08;100.00;100657.25;4957411;29;20485;-91
2021/07/16 04:30:44;;;;;;;33.95;31.38;;;;;;;23.49;100.00;100644.22;4958605;29;20102;-92
2021/07/16 04:33:11;;;;;;;30.83;28.73;;;;;;;22.62;100.00;100649.91;4962708;28;20050;-91
2021/07/16 04:35:39;;;;;;;29.65;27.73;;;;;;;21.10;100.00;100648.09;4960355;28;20058;-91
2021/07/16 04:38:06;;;;;;;32.83;30.55;;;;;;;20.83;100.00;100664.69;4954116;28;20058;-90
2021/07/16 04:40:34;;;;;;;32.70;30.40;;;;;;;20.68;100.00;100653.94;4954821;29;20051;-90
2021/07/16 04:43:02;;;;;;;31.77;29.35;;;;;;;20.90;100.00;100656.28;4955342;29;20051;-90
2021/07/16 04:45:31;;;;;;;29.15;26.88;;;;;;;20.93;100.00;100643.03;4956235;29;20106;-91
2021/07/16 04:47:59;;;;;;;29.70;27.25;;;;;;;21.03;100.00;100651.13;4957306;29;20485;-91
2021/07/16 04:50:26;;;;;;;31.13;28.85;;;;;;;21.05;100.00;100642.72;4956696;29;20138;-90
2021/07/16 04:52:53;;;;;;;33.38;30.77;;;;;;;21.14;100.00;100640.25;4956607;29;20050;-91
2021/07/16 04:55:21;;;;;;;30.00;27.70;;;;;;;21.15;100.00;100631.88;4956849;29;20421;-91
2021/07/16 04:57:48;;;;;;;31.67;29.48;;;;;;;21.27;100.00;100623.44;4956546;29;20501;-91
2021/07/16 05:00:16;;;;;;;32.33;29.75;;;;;;;21.32;100.00;100636.91;4956905;28;20047;-91
2021/07/16 05:02:43;;;;;;;34.65;32.13;;;;;;;21.15;100.00;100634.59;4956190;29;20057;-91
2021/07/16 05:05:13;;;;;;;36.13;33.33;;;;;;;21.40;100.00;100636.34;4956528;29;20051;-91
2021/07/16 05:07:39;;;;;;;36.20;33.80;;;;;;;21.59;100.00;100638.41;4956666;29;20051;-90
2021/07/16 05:10:08;;;;;;;34.33;31.83;;;;;;;21.90;100.00;100628.13;4956371;29;20060;-91
2021/07/16 05:12:35;;;;;;;34.22;31.42;;;;;;;22.05;100.00;100630.72;4956645;29;20051;-91
2021/07/16 05:15:03;;;;;;;33.72;31.00;;;;;;;22.27;100.00;100624.88;4956549;29;20463;-91
2021/07/16 05:17:30;;;;;;;30.92;28.58;;;;;;;22.49;100.00;100623.56;4956193;29;20058;-91
2021/07/16 05:19:57;;;;;;;30.75;28.75;;;;;;;22.78;100.00;100616.16;4956449;29;20074;-90
2021/07/16 05:22:25;;;;;;;31.73;28.95;;;;;;;22.76;100.00;100620.25;4956270;29;20058;-90
2021/07/16 05:24:52;;;;;;;31.48;29.08;;;;;;;23.03;100.00;100617.78;4956397;29;20059;-91
2021/07/16 05:27:19;;;;;;;33.40;31.30;;;;;;;23.41;100.00;100616.97;4956314;29;20055;-91
2021/07/16 05:29:45;;;;;;;32.25;30.17;;;;;;;23.70;100.00;100617.63;4956268;29;20226;-91
2021/07/16 05:32:12;;;;;;;29.95;27.90;;;;;;;23.98;100.00;100614.97;4956111;29;20058;-91
2021/07/16 05:34:39;;;;;;;30.70;28.65;;;;;;;24.10;100.00;100615.31;4955885;29;20052;-91
2021/07/16 05:37:07;;;;;;;30.10;28.00;;;;;;;24.26;100.00;100620.44;4956218;29;20055;-90
2021/07/16 05:39:35;;;;;;;31.50;29.27;;;;;;;24.38;100.00;100612.63;4955953;29;20054;-91
2021/07/16 05:42:04;;;;;;;28.88;26.98;;;;;;;24.36;100.00;100604.78;4957508;28;20478;-90
2021/07/16 05:44:32;;;;;;;28.33;26.50;;;;;;;24.67;100.00;100609.63;4960196;28;20063;-91
2021/07/16 05:46:58;;;;;;;31.05;28.92;;;;;;;24.77;100.00;100609.41;4973738;28;20051;-91
2021/07/16 05:49:25;;;;;;;33.90;31.55;;;;;;;24.98;100.00;100598.13;4964730;28;20487;-92
2021/07/16 05:51:52;;;;;;;29.40;27.15;;;;;;;25.08;100.00;100609.59;4961866;28;20971;-91
2021/07/16 05:54:19;;;;;;;29.83;27.60;;;;;;;25.22;100.00;100604.13;4956903;28;20046;-92
2021/07/16 05:56:47;;;;;;;28.77;26.88;;;;;;;25.61;100.00;100605.38;4964062;28;20069;-91
2021/07/16 05:59:14;;;;;;;30.65;28.63;;;;;;;25.29;100.00;100617.28;4971026;28;20074;-92
2021/07/16 06:01:41;;;;;;;30.08;27.98;;;;;;;25.58;100.00;100619.59;4964795;28;20420;-92
2021/07/16 06:04:10;;;;;;;28.42;26.42;;;;;;;25.64;100.00;100612.13;4969922;28;20050;-91
2021/07/16 06:06:38;;;;;;;28.27;26.27;;;;;;;25.82;100.00;100619.31;4967022;28;20051;-91
2021/07/16 06:09:06;;;;;;;28.38;26.08;;;;;;;25.84;100.00;100608.94;4966556;28;20043;-91
2021/07/16 06:11:33;;;;;;;28.20;26.15;;;;;;;25.92;100.00;100615.53;4969556;28;20450;-92
2021/07/16 06:14:01;;;;;;;26.88;24.92;;;;;;;26.10;100.00;100608.25;4958712;28;20055;-91
2021/07/16 06:16:28;;;;;;;27.35;25.55;;;;;;;26.24;100.00;100608.97;4974569;28;20049;-92
2021/07/16 06:18:55;;;;;;;26.55;24.60;;;;;;;26.18;100.00;100604.78;4965073;28;20054;-91
2021/07/16 06:21:22;;;;;;;27.00;25.20;;;;;;;26.08;100.00;100602.31;4968919;28;20059;-91
2021/07/16 06:23:49;;;;;;;25.63;23.30;;;;;;;26.14;100.00;100603.78;4962793;28;20051;-91
2021/07/16 06:26:16;;;;;;;28.35;26.23;;;;;;;26.36;100.00;100608.38;4960540;28;20046;-91
2021/07/16 06:28:42;;;;;;;28.20;26.17;;;;;;;26.46;100.00;100611.63;4966632;28;20048;-91
2021/07/16 06:31:11;;;;;;;26.88;24.90;;;;;;;26.44;100.00;100602.94;4970697;28;20054;-91
2021/07/16 06:33:38;;;;;;;27.88;25.92;;;;;;;26.52;100.00;100595.16;4973923;28;20054;-91
2021/07/16 06:36:05;;;;;;;29.92;27.95;;;;;;;26.67;100.00;100598.25;4966612;28;20421;-91
2021/07/16 06:38:32;;;;;;;28.95;26.25;;;;;;;26.86;100.00;100586.25;4962953;28;20448;-91
2021/07/16 06:41:00;;;;;;;28.23;25.70;;;;;;;26.88;100.00;100593.00;4962973;28;20047;-91
2021/07/16 06:43:27;;;;;;;29.20;27.20;;;;;;;27.04;100.00;100590.59;4957343;28;20051;-91
2021/07/16 06:45:54;;;;;;;27.20;25.13;;;;;;;26.93;100.00;100584.69;4967320;28;20047;-91
2021/07/16 06:48:22;;;;;;;27.33;25.10;;;;;;;26.99;100.00;100596.25;4965152;28;20043;-91
2021/07/16 06:50:49;;;;;;;30.85;28.50;;;;;;;27.13;100.00;100602.31;4961925;28;20046;-91
2021/07/16 06:53:16;;;;;;;28.92;26.50;;;;;;;27.34;100.00;100605.25;4965851;28;20050;-91
2021/07/16 06:55:43;;;;;;;29.60;26.95;;;;;;;27.45;100.00;100604.94;4959489;28;20038;-91
2021/07/16 06:58:09;;;;;;;28.42;26.00;;;;;;;27.58;100.00;100609.41;4970457;28;20042;-90
2021/07/16 07:00:36;;;;;;;30.67;28.27;;;;;;;27.60;100.00;100616.13;4963210;28;20047;-92
2021/07/16 07:03:03;;;;;;;29.70;27.60;;;;;;;27.68;100.00;100605.53;4960745;28;20059;-92
2021/07/16 07:05:31;;;;;;;27.77;25.23;;;;;;;27.62;100.00;100597.50;4966238;28;20047;-92
2021/07/16 07:07:58;;;;;;;32.55;29.83;;;;;;;27.80;100.00;100606.47;4973617;28;20055;-91
2021/07/16 07:10:25;;;;;;;29.55;27.00;;;;;;;27.74;100.00;100598.78;4973183;28;20046;-91
2021/07/16 07:12:52;;;;;;;28.08;26.02;;;;;;;27.94;100.00;100598.13;4962846;28;20497;-91
2021/07/16 07:15:19;;;;;;;27.60;25.67;;;;;;;27.77;100.00;100589.94;4971733;28;20039;-91
2021/07/16 07:17:46;;;;;;;27.48;25.33;;;;;;;27.78;100.00;100594.31;4963546;28;20043;-92
2021/07/16 07:20:13;;;;;;;28.50;26.40;;;;;;;28.01;100.00;100594.88;4963898;28;20047;-92
2021/07/16 07:22:42;;;;;;;29.42;27.02;;;;;;;28.07;100.00;100590.84;4969674;28;20402;-91
2021/07/16 07:25:10;;;;;;;30.42;28.50;;;;;;;28.28;100.00;100590.91;4967479;28;20047;-91
2021/07/16 07:28:03;;;;;;;29.38;27.02;;;;;;;28.27;100.00;100592.06;4972547;28;20050;-92
2021/07/16 07:30:30;;;;;;;27.15;24.80;;;;;;;28.22;100.00;100595.75;4964608;28;20050;-91
2021/07/16 07:32:57;;;;;;;27.17;24.42;;;;;;;28.09;100.00;100596.78;4969507;28;20047;-92
2021/07/16 07:35:24;;;;;;;28.23;25.98;;;;;;;28.26;100.00;100596.72;4959031;28;20047;-91
2021/07/16 07:37:52;;;;;;;29.25;27.30;;;;;;;28.22;100.00;100582.09;4968748;28;20055;-92
2021/07/16 07:40:20;;;;;;;32.97;30.75;;;;;;;28.69;100.00;100581.25;4963813;28;20401;-91
2021/07/16 07:42:46;;;;;;;30.90;28.80;;;;;;;28.42;100.00;100582.53;4963817;28;20045;-91
2021/07/16 07:45:14;;;;;;;28.75;26.90;;;;;;;28.33;100.00;100579.03;4970544;28;20055;-91
2021/07/16 07:47:41;;;;;;;27.17;25.13;;;;;;;28.55;100.00;100578.75;4967713;28;20043;-91
2021/07/16 07:50:12;;;;;;;28.70;26.40;;;;;;;28.68;100.00;100587.84;4966655;28;20072;-92
2021/07/16 07:52:39;;;;;;;28.55;26.40;;;;;;;28.84;100.00;100583.41;4962375;28;20058;-91
2021/07/16 07:55:08;;;;;;;29.92;28.00;;;;;;;28.74;100.00;100578.31;4953741;28;20055;-92
2021/07/16 07:57:35;;;;;;;30.40;28.40;;;;;;;28.80;100.00;100579.72;4971643;28;20062;-91
2021/07/16 08:00:02;;;;;;;29.67;27.38;;;;;;;29.01;100.00;100582.47;4971713;28;20055;-92
2021/07/16 08:02:29;;;;;;;28.95;26.80;;;;;;;29.12;100.00;100571.97;4970568;28;20038;-91
2021/07/16 08:04:56;;;;;;;27.88;26.17;;;;;;;29.09;100.00;100575.38;4959781;28;20040;-93
2021/07/16 08:07:22;;;;;;;28.30;26.15;;;;;;;29.02;100.00;100570.44;4956938;28;20496;-91
2021/07/16 08:09:49;;;;;;;29.67;26.80;;;;;;;29.11;100.00;100565.72;4958277;28;20114;-91
2021/07/16 08:12:17;;;;;;;28.75;26.35;;;;;;;29.35;100.00;100564.19;4959238;28;20463;-91
2021/07/16 08:14:44;;;;;;;27.05;25.15;;;;;;;28.88;100.00;100559.75;4964084;28;20051;-93
2021/07/16 08:17:11;;;;;;;27.77;25.80;;;;;;;29.47;100.00;100566.16;4957061;28;20109;-92
2021/07/16 08:19:38;;;;;;;27.52;25.42;;;;;;;29.50;100.00;100568.22;4957216;28;20505;-91
2021/07/16 08:22:05;;;;;;;29.27;27.02;;;;;;;29.76;100.00;100574.28;4963630;28;20043;-88
2021/07/16 08:24:32;;;;;;;27.55;25.55;;;;;;;29.90;100.00;100565.75;4963203;28;20059;-91
2021/07/16 08:26:59;;;;;;;27.23;25.13;;;;;;;29.86;100.00;100567.56;4958739;28;20054;-92
2021/07/16 08:29:27;;;;;;;26.20;24.40;;;;;;;29.55;100.00;100563.34;4971078;28;20054;-92
2021/07/16 08:31:54;;;;;;;27.90;25.80;;;;;;;29.92;100.00;100565.41;4974387;28;20440;-92
2021/07/16 08:34:21;;;;;;;28.83;26.58;;;;;;;30.02;100.00;100560.28;4966430;28;20042;-91
2021/07/16 08:36:47;;;;;;;28.50;26.30;;;;;;;30.18;100.00;100565.88;4968369;28;20059;-92
2021/07/16 08:39:14;;;;;;;28.00;26.00;;;;;;;30.21;100.00;100558.97;4962811;28;20054;-92
2021/07/16 08:41:41;;;;;;;27.45;24.77;;;;;;;29.94;100.00;100558.44;4960907;28;20051;-91
2021/07/16 08:44:08;;;;;;;25.83;24.13;;;;;;;29.85;100.00;100546.81;4965292;28;20051;-91
2021/07/16 08:46:37;;;;;;;26.50;24.40;;;;;;;30.25;100.00;100549.69;4970102;28;20123;-92
2021/07/16 08:49:04;;;;;;;27.50;23.48;;;;;;;29.71;100.00;100546.31;4965548;28;20051;-92
2021/07/16 08:51:31;;;;;;;25.08;23.48;;;;;;;29.91;100.00;100542.72;4962547;28;20059;-92
2021/07/16 08:53:58;;;;;;;25.30;23.40;;;;;;;30.00;100.00;100543.41;4966267;28;20055;-91
2021/07/16 08:56:28;;;;;;;26.85;25.02;;;;;;;30.63;100.00;100539.50;4970144;28;20051;-92
2021/07/16 08:58:55;;;;;;;26.35;24.35;;;;;;;30.76;100.00;100541.06;4956900;28;20521;-91
2021/07/16 09:01:22;;;;;;;25.77;23.98;;;;;;;30.62;100.00;100535.94;4969010;28;20051;-92
2021/07/16 09:04:01;;;;;;;27.05;24.70;;;;;;;30.91;100.00;100531.34;4972877;28;20053;-91
2021/07/16 09:06:47;;;;;;;26.25;24.20;;;;;;;30.80;97.43;100531.03;4958806;28;20117;-92
2021/07/16 09:09:15;;;;;;;27.55;25.83;;;;;;;31.06;99.11;100524.34;4972549;28;20050;-91
2021/07/16 09:11:43;;;;;;;28.42;26.38;;;;;;;31.28;94.92;100532.00;4964424;28;20055;-92
2021/07/16 09:14:19;;;;;;;25.42;23.83;;;;;;;31.08;94.84;100528.31;4966338;28;20054;-92
2021/07/16 09:16:54;;;;;;;26.70;24.85;;;;;;;31.38;86.22;100527.97;4971753;28;20050;-91
2021/07/16 09:19:29;;;;;;;26.58;24.88;;;;;;;31.53;66.33;100537.38;4960324;28;20043;-91
2021/07/16 09:22:00;;;;;;;24.98;23.27;;;;;;;30.44;97.77;100519.00;4970838;28;20051;-92
2021/07/16 09:24:27;;;;;;;27.02;24.85;;;;;;;31.55;73.94;100526.84;4972510;28;20043;-91
2021/07/16 09:26:54;;;;;;;24.98;23.20;;;;;;;31.75;66.32;100530.50;4959978;28;20050;-92
2021/07/16 09:29:28;;;;;;;26.60;24.70;;;;;;;31.74;58.44;100532.44;4962695;28;20056;-92
2021/07/16 09:32:03;;;;;;;26.05;24.17;;;;;;;31.89;52.62;100526.19;4972579;28;20050;-90
2021/07/16 09:34:32;;;;;;;26.35;24.13;;;;;;;31.65;72.31;100529.06;4957842;28;20046;-92
2021/07/16 09:37:08;;;;;;;25.80;24.13;;;;;;;32.19;54.53;100525.69;4974020;28;20058;-92
2021/07/16 09:39:36;;;;;;;26.00;24.02;;;;;;;32.06;55.00;100522.28;4961032;28;20047;-91
2021/07/16 09:42:05;;;;;;;24.73;22.85;;;;;;;31.89;49.01;100531.69;4966576;28;20058;-92
2021/07/16 09:44:35;;;;;;;26.60;24.58;;;;;;;31.86;71.80;100535.13;4973285;28;20532;-90
2021/07/16 09:47:13;;;;;;;25.33;23.38;;;;;;;32.27;62.01;100521.19;4969910;28;20106;-91
2021/07/16 09:49:43;;;;;;;25.65;23.70;;;;;;;32.45;48.44;100527.13;4961032;28;20074;-92
2021/07/16 09:52:13;;;;;;;25.33;23.73;;;;;;;31.96;58.60;100516.53;4965933;28;20069;-91
2021/07/16 09:54:59;;;;;;;25.27;23.42;;;;;;;32.37;43.91;100515.91;4965856;28;20113;-91
2021/07/16 09:57:38;;;;;;;25.17;23.25;;;;;;;32.52;51.23;100516.25;4962091;28;20441;-92
2021/07/16 10:00:15;;;;;;;26.65;24.85;;;;;;;32.27;40.77;100521.97;4965080;28;20071;-91
2021/07/16 10:02:44;;;;;;;25.55;23.75;;;;;;;32.52;48.10;100514.31;4964389;28;20055;-91
2021/07/16 10:05:13;;;;;;;27.77;25.77;;;;;;;32.54;51.42;100513.97;4967156;28;20113;-93
2021/07/16 10:07:41;;;;;;;26.77;24.63;;;;;;;32.84;45.65;100511.44;4960827;28;20129;-91
2021/07/16 10:10:10;;;;;;;25.73;23.83;;;;;;;32.85;46.92;100513.03;4975362;28;20039;-92
2021/07/16 10:12:38;;;;;;;26.35;24.42;;;;;;;32.38;53.23;100517.53;4964458;28;20050;-91
2021/07/16 10:15:06;;;;;;;25.45;23.75;;;;;;;32.59;44.81;100513.69;4970394;28;20468;-91
2021/07/16 10:17:33;;;;;;;26.33;24.65;;;;;;;32.30;64.70;100510.28;4959210;28;20054;-91
2021/07/16 10:20:00;;;;;;;27.10;24.92;;;;;;;32.74;60.13;100510.09;4966973;28;20050;-91
2021/07/16 10:22:28;;;;;;;26.67;24.88;;;;;;;32.99;44.34;100518.88;4967492;28;20051;-93
2021/07/16 10:24:55;;;;;;;26.60;24.70;;;;;;;32.68;46.61;100514.28;4975761;28;20047;-91
2021/07/16 10:27:22;;;;;;;25.92;23.92;;;;;;;32.34;45.99;100500.16;4964955;28;20524;-92
2021/07/16 10:29:49;;;;;;;26.13;24.42;;;;;;;32.47;50.09;100500.88;4974833;28;20055;-92
2021/07/16 10:32:44;;;;;;;26.58;24.75;;;;;;;32.75;34.33;100508.13;4961644;28;20055;-91
2021/07/16 10:35:17;;;;;;;27.00;25.30;;;;;;;32.88;34.60;100511.53;4967230;28;20047;-92
2021/07/16 10:37:46;;;;;;;27.88;26.08;;;;;;;32.54;46.41;100505.72;4973871;28;20531;-91
2021/07/16 10:40:34;;;;;;;26.10;23.98;;;;;;;32.73;40.88;100505.72;4959507;28;20051;-92
2021/07/16 10:43:01;;;;;;;26.08;24.27;;;;;;;33.05;39.97;100500.13;4967203;28;20525;-92
2021/07/16 10:45:33;;;;;;;25.48;23.35;;;;;;;33.02;39.41;100489.84;4967085;28;20525;-91
2021/07/16 10:48:16;;;;;;;25.15;23.35;;;;;;;32.84;42.96;100498.50;4966274;28;20047;-94
2021/07/16 10:50:44;;;;;;;25.60;23.38;;;;;;;32.84;44.56;100503.19;4966430;28;20059;-92
2021/07/16 10:53:18;;;;;;;26.38;24.20;;;;;;;32.75;39.53;100488.88;4964677;28;20460;-93
2021/07/16 10:56:03;;;;;;;25.58;23.67;;;;;;;33.08;39.65;100488.38;4967575;28;20046;-93
2021/07/16 10:58:31;;;;;;;28.83;26.90;;;;;;;33.14;45.67;100489.69;4960915;28;20042;-93
2021/07/16 11:01:00;;;;;;;27.52;25.52;;;;;;;33.22;44.36;100480.38;4974193;28;20592;-93
2021/07/16 11:03:39;;;;;;;22.75;20.92;;;;;;;32.80;62.54;100477.56;4955550;28;20055;-93
2021/07/16 11:06:06;;;;;;;22.70;20.77;;;;;;;33.17;42.48;100472.44;4971555;28;20053;-91
2021/07/16 11:08:57;;;;;;;23.10;21.08;;;;;;;33.35;44.36;100474.72;4974666;28;20051;-95
2021/07/16 11:11:38;;;;;;;21.33;19.55;;;;;;;33.22;53.92;100472.13;4971566;28;20051;-91